createdAt,value
2023-11-17T00:01:58.373Z,98070.09
2023-11-17T00:04:25.541Z,98069.13
2023-11-17T00:06:52.855Z,98077.38
2023-11-17T00:09:19.884Z,98084.41
2023-11-17T00:11:47.053Z,98082.59
2023-11-17T00:14:14.126Z,98081.63
2023-11-17T00:16:41.314Z,98090.78
2023-11-17T00:19:09.023Z,98086.56
2023-11-17T00:21:36.347Z,98091.63
2023-11-17T00:24:07.410Z,98090.63
2023-11-17T00:26:34.871Z,98093.88
2023-11-17T00:29:02.884Z,98095.75
2023-11-17T00:31:30.840Z,98095.94
2023-11-17T00:33:59.198Z,98089.63
2023-11-17T00:36:26.535Z,98077.75
2023-11-17T00:38:53.724Z,98079.78
2023-11-17T00:41:28.010Z,98069.31
2023-11-17T00:43:59.004Z,98061.91
2023-11-17T00:46:26.499Z,98064.59
2023-11-17T00:48:53.682Z,98045.91
2023-11-17T00:51:21.165Z,98046.69
2023-11-17T00:53:48.232Z,98037.75
2023-11-17T00:56:15.448Z,98031.59
2023-11-17T00:58:42.641Z,98029.66
2023-11-17T01:01:10.701Z,98030.72
2023-11-17T01:03:38.057Z,98031.69
2023-11-17T01:06:05.379Z,98019.59
2023-11-17T01:08:33.080Z,98011.00
2023-11-17T01:11:00.272Z,98007.41
2023-11-17T01:13:27.689Z,98008.38
2023-11-17T01:15:54.810Z,98010.84
2023-11-17T01:18:22.066Z,98012.78
2023-11-17T01:20:49.227Z,98012.25
2023-11-17T01:23:16.262Z,98015.59
2023-11-17T01:25:43.287Z,98009.53
2023-11-17T01:28:10.508Z,98002.25
2023-11-17T01:30:37.765Z,98004.66
2023-11-17T01:33:05.326Z,97999.50
2023-11-17T01:35:32.684Z,98002.38
2023-11-17T01:37:59.722Z,98006.38
2023-11-17T01:40:28.644Z,98023.47
2023-11-17T01:43:07.066Z,98010.88
2023-11-17T01:45:35.200Z,98013.19
2023-11-17T01:48:02.985Z,98008.75
2023-11-17T01:50:30.787Z,98000.25
2023-11-17T01:52:58.309Z,97992.31
2023-11-17T01:55:25.825Z,97998.34
2023-11-17T01:57:54.193Z,97971.63
2023-11-17T02:00:21.332Z,97966.47
2023-11-17T02:02:51.228Z,97956.56
2023-11-17T02:05:25.901Z,97955.94
2023-11-17T02:08:42.268Z,97947.69
2023-11-17T02:11:25.793Z,97947.50
2023-11-17T02:14:06.818Z,97965.94
2023-11-17T02:16:37.475Z,97964.09
2023-11-17T02:19:16.637Z,97962.75
2023-11-17T02:21:46.016Z,97948.16
2023-11-17T02:24:15.180Z,97946.50
2023-11-17T02:26:50.757Z,97936.56
2023-11-17T02:29:29.772Z,97942.63
2023-11-17T02:32:00.062Z,97942.91
2023-11-17T02:34:27.942Z,97933.66
2023-11-17T02:36:55.637Z,97926.94
2023-11-17T02:39:37.721Z,97922.34
2023-11-17T02:42:15.098Z,97920.28
2023-11-17T02:44:42.215Z,97927.25
2023-11-17T02:47:21.203Z,97926.03
2023-11-17T02:49:54.530Z,97929.34
2023-11-17T02:52:27.799Z,97921.41
2023-11-17T02:54:56.964Z,97923.19
2023-11-17T02:57:26.848Z,97910.00
2023-11-17T02:59:54.935Z,97898.91
2023-11-17T03:02:23.196Z,97894.50
2023-11-17T03:04:55.900Z,97887.34
2023-11-17T03:07:23.285Z,97882.66
2023-11-17T03:09:53.514Z,97876.31
2023-11-17T03:12:21.296Z,97860.16
2023-11-17T03:14:48.306Z,97858.94
2023-11-17T03:17:15.388Z,97859.03
2023-11-17T03:19:43.839Z,97856.41
2023-11-17T03:22:14.989Z,97860.97
2023-11-17T03:24:42.872Z,97860.13
2023-11-17T03:27:09.942Z,97869.69
2023-11-17T03:29:38.446Z,97876.72
2023-11-17T03:32:08.858Z,97877.22
2023-11-17T03:34:36.195Z,97874.66
2023-11-17T03:37:05.214Z,97879.91
2023-11-17T03:39:43.446Z,97871.00
2023-11-17T03:42:17.487Z,97874.66
2023-11-17T03:44:44.542Z,97876.16
2023-11-17T03:47:13.641Z,97880.56
2023-11-17T03:49:42.123Z,97875.00
2023-11-17T03:52:09.202Z,97880.78
2023-11-17T03:54:38.725Z,97877.47
2023-11-17T03:57:07.761Z,97867.00
2023-11-17T03:59:35.610Z,97859.44
2023-11-17T04:02:02.920Z,97872.25
2023-11-17T04:04:30.414Z,97852.00
2023-11-17T04:06:58.749Z,97857.66
2023-11-17T04:09:27.059Z,97850.38
2023-11-17T04:11:55.097Z,97848.16
2023-11-17T04:14:23.668Z,97847.34
2023-11-17T04:16:51.717Z,97844.00
2023-11-17T04:19:22.226Z,97842.88
2023-11-17T04:21:50.819Z,97844.31
2023-11-17T04:24:18.701Z,97849.84
2023-11-17T04:26:47.813Z,97838.38
2023-11-17T04:29:15.180Z,97829.41
2023-11-17T04:31:43.449Z,97818.38
2023-11-17T04:34:12.947Z,97817.81
2023-11-17T04:36:40.378Z,97813.25
2023-11-17T04:39:18.805Z,97816.53
2023-11-17T04:41:48.339Z,97823.09
2023-11-17T04:44:15.682Z,97821.44
2023-11-17T04:46:42.951Z,97814.47
2023-11-17T04:49:10.206Z,97823.16
2023-11-17T04:51:37.244Z,97825.09
2023-11-17T04:54:04.486Z,97819.09
2023-11-17T04:56:31.613Z,97818.44
2023-11-17T04:58:58.763Z,97819.69
2023-11-17T05:01:25.909Z,97812.41
2023-11-17T05:03:53.092Z,97805.28
2023-11-17T05:06:24.856Z,97804.72
2023-11-17T05:08:52.142Z,97804.13
2023-11-17T05:11:19.278Z,97795.16
2023-11-17T05:13:46.281Z,97796.91
2023-11-17T05:16:15.539Z,97791.78
2023-11-17T05:18:44.123Z,97794.94
2023-11-17T05:21:14.119Z,97793.44
2023-11-17T05:23:41.192Z,97797.16
2023-11-17T05:26:09.961Z,97791.16
2023-11-17T05:28:37.452Z,97789.13
2023-11-17T05:31:04.920Z,97782.16
2023-11-17T05:33:32.117Z,97786.00
2023-11-17T05:35:59.192Z,97789.63
2023-11-17T05:38:27.762Z,97785.94
2023-11-17T05:40:54.977Z,97790.09
2023-11-17T05:43:22.089Z,97785.94
2023-11-17T05:45:51.716Z,97783.47
2023-11-17T05:48:18.881Z,97776.16
2023-11-17T05:50:46.209Z,97772.84
2023-11-17T05:53:13.237Z,97778.50
2023-11-17T05:55:40.760Z,97781.47
2023-11-17T05:58:09.017Z,97777.72
2023-11-17T06:00:36.109Z,97778.34
2023-11-17T06:03:03.384Z,97783.47
2023-11-17T06:05:31.025Z,97783.16
2023-11-17T06:07:58.298Z,97781.72
2023-11-17T06:10:25.370Z,97786.59
2023-11-17T06:12:52.541Z,97789.44
2023-11-17T06:15:28.575Z,97795.28
2023-11-17T06:17:56.015Z,97792.38
2023-11-17T06:20:24.459Z,97794.66
2023-11-17T06:22:51.459Z,97798.47
2023-11-17T06:25:18.532Z,97788.28
2023-11-17T06:27:47.459Z,97784.91
2023-11-17T06:30:15.675Z,97782.13
2023-11-17T06:32:43.684Z,97780.84
2023-11-17T06:35:10.763Z,97775.75
2023-11-17T06:37:38.925Z,97769.38
2023-11-17T06:40:11.349Z,97770.16
2023-11-17T06:42:41.245Z,97770.72
2023-11-17T06:45:08.867Z,97763.28
2023-11-17T06:47:36.244Z,97765.22
2023-11-17T06:50:05.934Z,97763.09
2023-11-17T06:52:33.163Z,97759.66
2023-11-17T06:55:00.468Z,97751.84
2023-11-17T06:57:29.215Z,97756.06
2023-11-17T06:59:56.243Z,97754.84
2023-11-17T07:02:23.443Z,97746.31
2023-11-17T07:04:50.576Z,97743.91
2023-11-17T07:07:17.802Z,97732.78
2023-11-17T07:09:44.914Z,97740.03
2023-11-17T07:12:12.037Z,97729.78
2023-11-17T07:14:39.492Z,97728.94
2023-11-17T07:17:06.695Z,97726.41
2023-11-17T07:19:37.083Z,97717.19
2023-11-17T07:22:04.394Z,97720.63
2023-11-17T07:24:32.155Z,97712.72
2023-11-17T07:27:00.298Z,97705.19
2023-11-17T07:29:27.831Z,97703.72
2023-11-17T07:31:55.747Z,97699.16
2023-11-17T07:34:23.253Z,97693.56
2023-11-17T07:36:50.493Z,97679.41
2023-11-17T07:39:20.983Z,97677.09
2023-11-17T07:41:48.610Z,97676.53
2023-11-17T07:44:23.008Z,97657.34
2023-11-17T07:46:50.303Z,97657.03
2023-11-17T07:49:21.046Z,97667.44
2023-11-17T07:51:49.573Z,97667.72
2023-11-17T07:54:18.471Z,97656.22
2023-11-17T07:56:52.278Z,97658.84
2023-11-17T07:59:20.744Z,97651.13
2023-11-17T08:01:48.501Z,97654.41
2023-11-17T08:04:18.499Z,97658.56
2023-11-17T08:06:46.303Z,97659.16
2023-11-17T08:09:14.155Z,97659.19
2023-11-17T08:11:41.743Z,97655.56
2023-11-17T08:14:10.299Z,97651.78
2023-11-17T08:16:38.272Z,97644.53
2023-11-17T08:19:18.311Z,97648.13
2023-11-17T08:21:53.209Z,97649.88
2023-11-17T08:24:22.215Z,97656.06
2023-11-17T08:26:52.228Z,97651.75
2023-11-17T08:29:22.797Z,97654.53
2023-11-17T08:31:51.439Z,97649.78
2023-11-17T08:34:18.976Z,97647.69
2023-11-17T08:36:46.202Z,97630.75
2023-11-17T08:39:27.087Z,97638.97
2023-11-17T08:41:56.584Z,97627.78
2023-11-17T08:44:24.899Z,97621.34
2023-11-17T08:46:53.055Z,97625.88
2023-11-17T08:49:22.428Z,97623.38
2023-11-17T08:51:49.777Z,97618.59
2023-11-17T08:54:20.133Z,97604.13
2023-11-17T08:56:50.286Z,97610.53
2023-11-17T08:59:17.902Z,97609.72
2023-11-17T09:01:45.783Z,97608.53
2023-11-17T09:04:13.715Z,97609.22
2023-11-17T09:06:41.037Z,97592.25
2023-11-17T09:09:24.130Z,97587.00
2023-11-17T09:12:00.529Z,97585.66
2023-11-17T09:14:32.160Z,97581.72
2023-11-17T09:17:03.137Z,97573.66
2023-11-17T09:19:30.660Z,97567.91
2023-11-17T09:21:57.778Z,97542.47
2023-11-17T09:24:24.936Z,97537.16
2023-11-17T09:26:51.978Z,97535.59
2023-11-17T09:29:20.307Z,97543.59
2023-11-17T09:31:49.138Z,97542.09
2023-11-17T09:34:18.298Z,97524.38
2023-11-17T09:36:45.673Z,97516.34
2023-11-17T09:39:12.919Z,97518.16
2023-11-17T09:41:42.120Z,97521.53
2023-11-17T09:44:10.110Z,97523.19
2023-11-17T10:18:49.769Z,97459.06
2023-11-17T10:21:20.485Z,97464.63
2023-11-17T10:23:52.373Z,97465.00
2023-11-17T10:26:21.374Z,97445.53
2023-11-17T10:28:49.121Z,97431.44
2023-11-17T10:31:18.456Z,97437.31
2023-11-17T10:33:47.025Z,97433.09
2023-11-17T10:36:19.772Z,97437.56
2023-11-17T10:38:48.906Z,97449.81
2023-11-17T10:41:21.946Z,97448.59
2023-11-17T10:43:59.701Z,97435.63
2023-11-17T10:46:32.393Z,97428.75
2023-11-17T10:49:06.210Z,97421.66
2023-11-17T10:51:36.007Z,97408.19
2023-11-17T10:54:10.704Z,97405.22
2023-11-17T10:56:38.594Z,97405.47
2023-11-17T10:59:10.118Z,97411.41
2023-11-17T11:01:38.809Z,97393.53
2023-11-17T11:04:17.202Z,97391.38
2023-11-17T11:06:44.931Z,97375.44
2023-11-17T11:09:19.427Z,97375.44
2023-11-17T11:11:52.138Z,97356.28
2023-11-17T11:14:21.989Z,97358.31
2023-11-17T11:16:50.474Z,97353.66
2023-11-17T11:19:24.420Z,97366.94
2023-11-17T11:22:02.914Z,97363.31
2023-11-17T11:24:37.988Z,97353.66
2023-11-17T11:27:07.626Z,97349.72
2023-11-17T11:29:40.316Z,97351.28
2023-11-17T11:32:09.854Z,97340.00
2023-11-17T11:34:37.489Z,97334.97
2023-11-17T11:37:05.555Z,97337.13
2023-11-17T11:39:32.959Z,97327.16
2023-11-17T11:42:01.927Z,97339.53
2023-11-17T11:44:29.230Z,97344.91
2023-11-17T11:46:59.289Z,97344.28
2023-11-17T11:49:27.198Z,97334.50
2023-11-17T11:52:11.183Z,97320.94
2023-11-17T11:54:38.981Z,97320.97
2023-11-17T11:57:32.619Z,97318.75
2023-11-17T12:00:15.721Z,97312.00
2023-11-17T12:02:59.701Z,97309.66
2023-11-17T12:05:30.258Z,97300.00
2023-11-17T12:07:58.667Z,97295.00
2023-11-17T12:10:26.670Z,97289.06
2023-11-17T12:12:57.115Z,97292.91
2023-11-17T12:15:24.853Z,97294.47
2023-11-17T12:18:07.311Z,97294.31
2023-11-17T12:20:40.279Z,97292.66
2023-11-17T12:23:08.012Z,97289.66
2023-11-17T12:25:36.243Z,97282.63
2023-11-17T12:28:03.856Z,97274.97
2023-11-17T12:30:32.598Z,97263.84
2023-11-17T12:33:00.599Z,97276.78
2023-11-17T12:35:28.849Z,97282.59
2023-11-17T12:37:56.642Z,97275.66
2023-11-17T12:40:24.260Z,97271.28
2023-11-17T12:42:52.167Z,97266.94
2023-11-17T12:45:21.293Z,97261.66
2023-11-17T12:47:48.901Z,97249.81
2023-11-17T12:50:16.082Z,97249.88
2023-11-17T12:55:30.431Z,97244.19
2023-11-17T12:57:57.574Z,97228.84
2023-11-17T13:00:29.435Z,97222.16
2023-11-17T13:02:56.974Z,97223.59
2023-11-17T13:05:26.973Z,97232.47
2023-11-17T13:07:55.369Z,97235.84
2023-11-17T13:10:22.820Z,97243.41
2023-11-17T13:12:50.278Z,97248.41
2023-11-17T13:15:17.716Z,97240.63
2023-11-17T13:17:45.552Z,97244.03
2023-11-17T13:20:21.769Z,97238.38
2023-11-17T13:22:51.196Z,97227.03
2023-11-17T13:25:18.744Z,97225.22
2023-11-17T13:27:46.065Z,97233.28
2023-11-17T13:30:15.610Z,97231.16
2023-11-17T13:32:54.608Z,97232.66
2023-11-17T13:35:24.283Z,97222.31
2023-11-17T13:37:52.551Z,97228.34
2023-11-17T13:40:38.586Z,97216.09
2023-11-17T13:43:13.065Z,97210.25
2023-11-17T13:45:43.808Z,97207.84
2023-11-17T13:48:13.688Z,97207.22
2023-11-17T13:50:42.617Z,97208.34
2023-11-17T13:53:12.601Z,97215.81
2023-11-17T13:55:40.924Z,97208.44
2023-11-17T13:58:08.374Z,97206.75
2023-11-17T14:00:36.726Z,97211.50
2023-11-17T14:03:05.159Z,97207.84
2023-11-17T14:05:32.400Z,97209.94
2023-11-17T14:07:59.397Z,97203.56
2023-11-17T14:10:26.553Z,97200.19
2023-11-17T14:12:53.622Z,97199.91
2023-11-17T14:15:20.998Z,97198.41
2023-11-17T14:17:49.330Z,97190.59
2023-11-17T14:20:18.891Z,97199.13
2023-11-17T14:22:46.439Z,97196.88
2023-11-17T14:25:13.738Z,97194.56
2023-11-17T14:27:41.380Z,97193.16
2023-11-17T14:30:09.654Z,97203.94
2023-11-17T14:32:37.690Z,97199.41
2023-11-17T14:35:05.955Z,97198.09
2023-11-17T14:37:32.991Z,97189.03
2023-11-17T14:40:00.461Z,97184.38
2023-11-17T14:42:27.651Z,97182.50
2023-11-17T14:44:54.827Z,97185.56
2023-11-17T14:47:23.825Z,97177.97
2023-11-17T14:49:51.751Z,97175.94
2023-11-17T14:52:18.974Z,97165.50
2023-11-17T14:54:47.433Z,97156.94
2023-11-17T14:57:15.860Z,97154.72
2023-11-17T14:59:43.297Z,97157.34
2023-11-17T15:02:10.657Z,97152.06
2023-11-17T15:04:37.970Z,97154.41
2023-11-17T15:07:05.377Z,97148.88
2023-11-17T15:09:35.235Z,97140.75
2023-11-17T15:12:02.384Z,97141.56
2023-11-17T15:14:29.488Z,97141.91
2023-11-17T15:16:57.929Z,97147.19
2023-11-17T15:19:27.774Z,97139.81
2023-11-17T15:21:55.258Z,97155.00
2023-11-17T15:24:23.722Z,97159.63
2023-11-17T15:26:53.366Z,97156.19
2023-11-17T15:29:23.437Z,97153.28
2023-11-17T15:31:53.203Z,97164.22
2023-11-17T15:34:22.701Z,97153.28
2023-11-17T15:36:52.031Z,97152.56
2023-11-17T15:39:19.232Z,97145.66
2023-11-17T15:41:46.548Z,97144.91
2023-11-17T15:44:19.627Z,97135.88
2023-11-17T15:46:47.750Z,97128.47
2023-11-17T15:49:17.056Z,97122.66
2023-11-17T15:51:44.991Z,97121.31
2023-11-17T15:54:11.989Z,97113.97
2023-11-17T15:56:41.659Z,97095.47
2023-11-17T15:59:10.843Z,97098.19
2023-11-17T16:01:40.415Z,97103.03
2023-11-17T16:04:09.076Z,97099.88
2023-11-17T16:06:38.874Z,97097.84
2023-11-17T16:09:11.767Z,97104.41
2023-11-17T16:11:41.743Z,97107.69
2023-11-17T16:14:14.330Z,97104.41
2023-11-17T16:16:43.219Z,97101.75
2023-11-17T16:19:11.062Z,97106.22
2023-11-17T16:21:38.353Z,97099.50
2023-11-17T16:24:06.603Z,97107.06
2023-11-17T16:26:34.719Z,97119.50
2023-11-17T16:29:02.381Z,97123.50
2023-11-17T16:31:29.780Z,97126.28
2023-11-17T16:33:56.904Z,97118.63
2023-11-17T16:36:25.580Z,97118.50
2023-11-17T16:38:53.148Z,97118.63
2023-11-17T16:41:21.917Z,97118.34
2023-11-17T16:43:52.061Z,97112.88
2023-11-17T16:46:22.063Z,97113.34
2023-11-17T16:48:51.818Z,97125.53
2023-11-17T16:51:19.262Z,97112.69
2023-11-17T16:53:47.652Z,97102.66
2023-11-17T16:56:16.055Z,97095.22
2023-11-17T16:58:43.566Z,97093.69
2023-11-17T17:01:11.234Z,97088.50
2023-11-17T17:03:38.905Z,97075.91
2023-11-17T17:06:06.308Z,97082.00
2023-11-17T17:08:36.398Z,97065.03
2023-11-17T17:11:06.204Z,97066.75
2023-11-17T17:13:35.326Z,97066.38
2023-11-17T17:16:02.858Z,97058.38
2023-11-17T17:18:31.021Z,97047.97
2023-11-17T17:20:58.730Z,97049.84
2023-11-17T17:23:26.809Z,97051.88
2023-11-17T17:25:56.608Z,97066.09
2023-11-17T17:28:24.021Z,97065.88
2023-11-17T17:30:51.699Z,97063.88
2023-11-17T17:33:18.892Z,97069.34
2023-11-17T17:35:46.916Z,97068.00
2023-11-17T17:38:14.928Z,97066.03
2023-11-17T17:40:43.917Z,97061.91
2023-11-17T17:43:13.280Z,97056.00
2023-11-17T17:45:41.510Z,97052.38
2023-11-17T17:48:09.537Z,97050.25
2023-11-17T17:50:38.178Z,97051.34
2023-11-17T17:53:05.551Z,97047.25
2023-11-17T17:55:32.871Z,97053.56
2023-11-17T17:58:00.003Z,97048.56
2023-11-17T18:00:29.310Z,97043.69
2023-11-17T18:03:01.445Z,97039.16
2023-11-17T18:05:31.277Z,97035.91
2023-11-17T18:07:58.973Z,97037.91
2023-11-17T18:10:27.000Z,97049.59
2023-11-17T18:12:54.905Z,97043.03
2023-11-17T18:15:23.379Z,97045.47
2023-11-17T18:17:53.512Z,97035.47
2023-11-17T18:20:24.679Z,97030.50
2023-11-17T18:22:53.603Z,97034.59
2023-11-17T18:25:22.520Z,97033.88
2023-11-17T18:27:53.346Z,97030.31
2023-11-17T18:30:22.454Z,97023.75
2023-11-17T18:32:50.743Z,97027.00
2023-11-17T18:35:23.179Z,97025.56
2023-11-17T18:37:51.421Z,97016.22
2023-11-17T18:40:23.811Z,97009.94
2023-11-17T18:42:54.519Z,97010.53
2023-11-17T18:45:22.438Z,97014.06
2023-11-17T18:47:50.309Z,97012.41
2023-11-17T18:50:19.704Z,97009.59
2023-11-17T18:52:48.594Z,97004.06
2023-11-17T18:55:18.295Z,97003.34
2023-11-17T18:57:46.300Z,97004.00
2023-11-17T19:00:22.175Z,96999.00
2023-11-17T19:02:50.793Z,96992.88
2023-11-17T19:05:20.233Z,96990.72
2023-11-17T19:07:53.425Z,96991.53
2023-11-17T19:10:22.039Z,96986.00
2023-11-17T19:12:51.053Z,96976.63
2023-11-17T19:15:20.977Z,96976.97
2023-11-17T19:17:48.707Z,96980.09
2023-11-17T19:20:16.836Z,96984.19
2023-11-17T19:22:45.497Z,96981.38
2023-11-17T19:25:13.072Z,96977.50
2023-11-17T19:27:41.478Z,96967.66
2023-11-17T19:30:16.353Z,96963.31
2023-11-17T19:32:51.183Z,96960.34
2023-11-17T19:35:23.589Z,96958.47
2023-11-17T19:37:52.050Z,96955.16
2023-11-17T19:40:19.377Z,96948.66
2023-11-17T19:42:46.536Z,96949.69
2023-11-17T19:45:18.311Z,96952.81
2023-11-17T19:47:46.327Z,96948.34
2023-11-17T19:50:16.096Z,96948.34
2023-11-17T19:52:48.396Z,96953.72
2023-11-17T19:55:16.450Z,96958.78
2023-11-17T19:57:48.807Z,96954.31
2023-11-17T20:00:24.654Z,96958.50
2023-11-17T20:02:57.073Z,96953.16
2023-11-17T20:05:24.809Z,96956.91
2023-11-17T20:07:53.651Z,96951.91
2023-11-17T20:10:21.831Z,96955.16
2023-11-17T20:12:49.148Z,96949.34
2023-11-17T20:15:16.405Z,96948.81
2023-11-17T20:17:56.830Z,96948.81
2023-11-17T20:20:29.143Z,96946.34
2023-11-17T20:22:57.891Z,96933.09
2023-11-17T20:25:26.594Z,96937.84
2023-11-17T20:27:56.583Z,96933.22
2023-11-17T20:30:26.650Z,96926.72
2023-11-17T20:32:55.769Z,96918.34
2023-11-17T20:35:25.284Z,96919.63
2023-11-17T20:37:53.970Z,96913.03
2023-11-17T20:40:21.645Z,96904.75
2023-11-17T20:42:52.208Z,96903.56
2023-11-17T20:45:22.089Z,96903.84
2023-11-17T20:47:49.592Z,96905.19
2023-11-17T20:50:20.826Z,96897.56
2023-11-17T20:52:53.526Z,96892.50
2023-11-17T20:55:22.305Z,96900.00
2023-11-17T20:57:51.117Z,96894.22
2023-11-17T21:00:22.401Z,96892.41
2023-11-17T21:02:52.965Z,96885.22
2023-11-17T21:05:21.430Z,96885.47
2023-11-17T21:07:49.557Z,96885.88
2023-11-17T21:10:23.483Z,96886.94
2023-11-17T21:12:53.438Z,96881.69
2023-11-17T21:15:22.463Z,96873.78
2023-11-17T21:17:52.639Z,96874.13
2023-11-17T21:20:21.851Z,96877.56
2023-11-17T21:22:49.390Z,96871.78
2023-11-17T21:25:19.491Z,96858.31
2023-11-17T21:27:49.255Z,96851.53
2023-11-17T21:30:17.114Z,96854.06
2023-11-17T21:32:52.475Z,96863.72
2023-11-17T21:35:20.696Z,96856.81
2023-11-17T21:37:56.841Z,96856.69
2023-11-17T21:40:24.751Z,96864.53
2023-11-17T21:42:53.497Z,96856.69
2023-11-17T21:45:24.847Z,96851.16
2023-11-17T21:47:53.672Z,96856.69
2023-11-17T21:50:22.599Z,96858.59
2023-11-17T21:52:50.868Z,96869.59
2023-11-17T21:55:19.355Z,96864.16
2023-11-17T21:57:47.809Z,96858.91
2023-11-17T22:00:18.600Z,96866.16
2023-11-17T22:02:47.957Z,96871.22
2023-11-17T22:05:17.198Z,96869.22
2023-11-17T22:07:45.361Z,96857.44
2023-11-17T22:10:13.352Z,96863.41
2023-11-17T22:12:41.449Z,96859.16
2023-11-17T22:15:10.268Z,96853.19
2023-11-17T22:17:37.936Z,96851.41
2023-11-17T22:20:07.107Z,96840.16
2023-11-17T22:22:34.908Z,96830.44
2023-11-17T22:25:02.791Z,96836.94
2023-11-17T22:27:30.048Z,96827.84
2023-11-17T22:29:57.778Z,96822.47
2023-11-17T22:32:25.160Z,96805.88
2023-11-17T22:34:52.403Z,96814.38
2023-11-17T22:37:19.852Z,96811.94
2023-11-17T22:39:47.189Z,96815.94
2023-11-17T22:42:14.870Z,96814.69
2023-11-17T22:44:42.083Z,96810.41
2023-11-17T22:47:09.314Z,96801.31
2023-11-17T22:49:39.782Z,96786.44
2023-11-17T22:52:06.918Z,96763.88
2023-11-17T22:54:34.537Z,96746.69
2023-11-17T22:57:01.693Z,96724.78
2023-11-17T22:59:28.810Z,96707.72
2023-11-17T23:01:56.021Z,96705.53
2023-11-17T23:04:23.149Z,96695.72
2023-11-17T23:06:50.272Z,96687.38
2023-11-17T23:09:17.353Z,96672.16
2023-11-17T23:11:45.381Z,96672.94
2023-11-17T23:14:12.630Z,96677.28
2023-11-17T23:16:40.087Z,96675.97
2023-11-17T23:19:17.892Z,96661.53
2023-11-17T23:21:47.768Z,96645.75
2023-11-17T23:24:14.985Z,96634.66
2023-11-17T23:26:41.988Z,96628.44
2023-11-17T23:29:09.901Z,96636.28
2023-11-17T23:31:37.047Z,96648.00
2023-11-17T23:34:04.093Z,96675.97
2023-11-17T23:36:31.167Z,96688.69
2023-11-17T23:38:59.121Z,96697.47
2023-11-17T23:41:26.730Z,96696.25
2023-11-17T23:43:55.395Z,96701.59
2023-11-17T23:46:24.407Z,96696.69
2023-11-17T23:48:51.836Z,96709.81
2023-11-17T23:51:18.881Z,96721.13
2023-11-17T23:53:45.939Z,96728.41
2023-11-17T23:56:13.871Z,96736.88
2023-11-17T23:58:41.111Z,96747.69
